Khwd ardhayy zn.

METAR KHWD 252254Z 28015G23KT 10SM SCT019 BKN026 BKN100 17/11 A3009 RMK AO2 PK WND 28026/2235 SLP200 T01670106. The wind is from direction 280° with a speed of 15 kt. Visibility is 10 mi. The ceiling, broken or more, is 2,600 ft. The temperature and wind chill are 17 °C.

Khwd ardhayy zn. Things To Know About Khwd ardhayy zn.

Cross country suggestions from KHWD? Hi fellow fliers! I'm a recently minted VFR. Goal for this year is to go on 1 XC flight per month to go towards the 50 hour IFR requirement. What are some fun single-day-round-trip flights/destinations from the SF Bay Area? We have done so far — KSTS - had a burger. ...Hayward Executive Airport, (HWD/KHWD), United States - View live flight arrival and departure information, live flight delays and cancelations, and current weather conditions at the airport. See route maps and schedules for flights to and from Hayward and airport reviews. Flightradar24 is the world's most popular flight tracker. IATA: HWD ICAO: KHWDDoes orbital debris pose a threat to our space telescopes? If so, how is space debris avoided? Find out at HowStuffWorks. Advertisement Maybe you've heard that space is big. You kn...METAR KHWD 250622Z AUTO 28008KT 10SM FEW017 FEW022 OVC044 14/10 A3008 RMK AO2 T01390100. The wind is from direction 280° with a speed of 8 kt. Visibility is 10 mi. The ceiling, broken or more, is 4,400 ft. The temperature and wind chill are 14 °C. Hayward Executive Airport

Views: 193. Location: Hayward Executive Airport - KHWD, USA - California. By: Jamie West Photos | Profile | Contact. Album Like Share. Note: PFC/Flight Dogs' beautifully repainted fleet of Cessna 172s sits on the ramp at Hayward Executive Airport with tail N9526H, a 172M variant, at the forefront.https://www.sliwa.com/

where in the world 871. all shots by KHWD 2023. 87 views. 13 faves. 1 comment. Uploaded on March 16, 2024. Taken on May 20, 2023.

Ardhayy Punk Blagedot ใช้งาน Facebook เข้าร่วม Facebook เพื่อติดต่อกับ Ardhayy Punk Blagedot และคนอื่นๆ ที่คุณอาจจะรู้จัก Facebook ทำให้ผู้คนสามารถแชร์สิ่งต่างๆ...A good day to head out and get some landing practice in. Flew from San Carlos (KSQL) over to Hayward (KHWD). Plus I wanted to try out the new tie down moun...METAR KHWD 242354Z 25012KT 10SM OVC021 15/09 A2993 RMK AO2 SLP144 T01500089 10156 20139 58005. The wind is from direction 250° with a speed of …HWD/KHWD COUNTRY United States. SERVES Hayward, California OWNER City of Hayward PUBLIC/PRIVATE Public LOCAL TIME 12. Jul 14:36 PDT. DESCRIPTION Hayward Executive Airport is a municipal airport in Hayward, California. The National Plan of Integrated Airport Systems for 2011-2015 categorized it as a reliever airport.Zinc hydride is an inorganic compound with the chemical formula Zn H 2.It is a white, odourless solid which slowly decomposes into its elements at room temperature; despite this it is the most stable of the binary first row transition metal hydrides.A variety of coordination compounds containing Zn-H bonds are used as reducing agents, but ZnH 2 itself has no common applications.

Homes for rent near me dollar1400

KHWD - Hayward Executive Airport - 8 miles south of KOAK GG01 - Clipper Cove Located on Treasure Island. All airports include : All gates and terminal Global Night Lightning Custom ATC Frame rate friendly. Golden Gate Bridge. Detailed model of the world's most famous bridge. Alcatraz Island. The 'Rock'. Used to be home of a federal …

Hayward Exec, Hayward, CA (HWD/KHWD) flight tracking (arrivals, departures, en route, and scheduled flights) and airport status.Zinc, granular, 20 mesh Revision Date 24-Dec-2021 Legend: TSCA US EPA (TSCA) - Toxic Substances Control Act, (40 CFR Part 710) X - Listed '-' - Not Listed TSCA 12(b) - Notices of ExportNot applicable Component CAS No TSCA 12(b) - Notices of Export Zinc powder - zinc dust (pyrophoric) 7440-66-6 Section 5Station Info. Don’t get blown away by the weather in KHWD hayward, ca. WindAlert has the latest weather conditions, winds, forecasts, nearby currents, and alerts for the area!The Kennebec Water District has used China Lake as its source of supply since 1905. China lake, covering an area of 6.1 square miles and a maximum depth of 85 feet, holds about 31.7 billion gallons of fresh water at any given time and provides more than enough capacity year around. The intake is in the West Basin of the lake which is largely ...Henderson Executive Airport (KHND/HNS) This add-on scenery is for MSFS, made by UK2000 Scenery For more information please see websiteWebsite http://www.uk20...Explore AOPA Airports, the ultimate online destination for pilots. Find airport information, plan your trips, and join the aviation community.

Contacts. Manager: Publicly owned: DOUG MCNEELEY 20301 SKYWEST DR HAYWARD, CA 94541-4699 (510) 293-8678. CITY OF HAYWARD 777 B ST HAYWARD, CA 94541 510-583-4310.METAR KHWD 231054Z AUTO 21010KT 10SM OVC026 14/09 A2989 RMK AO2 SLP130 T01440089. The wind is from direction 210° with a speed of 10 kt. Visibility is 10 mi. The ceiling, broken or more, is 2,600 ft. The temperature and wind chill are 14 °C. Hayward Executive Airport KHWD · California, United States.Does orbital debris pose a threat to our space telescopes? If so, how is space debris avoided? Find out at HowStuffWorks. Advertisement Maybe you've heard that space is big. You kn...HAYWARD EXEC (KHWD) Weather HAYWARD, CA. Kneeboard Summary. Fuel Prices Near HWD. HWD Airport Diagram. FAA data valid effective Apr 18 2024 - May 16 2024 (unless otherwise noted). HWD Airport Resource Menu.Solvent stabilizes the Cu-HKUST-H2O by -69.4 kJ per mole of Cu and Zn-HKUST-DMF by at least -50.7 kJ per mole of Zn. Such strong chemisorption of solvent is similar in magnitude to the strongly exothermic binding at low coverage for chemisorbed H2O on transition metal oxide nanoparticle surfaces. The strongly exothermic solvent-framework ...

Hayward Executive Airport (HWD) Open until 12:00 AM. 7 reviews. (510) 293-8678. Website. More. Directions. Advertisement. 20301 Skywest Dr.

SubscribeNow :https://youtu.be/y82FApKqkJsकोईरी के खौफ चलेला |#Ziddi Boy Chandan #Khushboo Raj | Koiri Ke Khof Chlela |New Kushwaha Song ...METAR KHWD 230654Z AUTO 20006KT 10SM CLR 14/08 A2988 RMK AO2 SLP127 T01440083. The wind is from direction 200° with a speed of 6 kt. Visibility is 10 mi. No ceiling has been observed. The temperature and wind chill are 14 °C. Hayward Executive Airport KHWD · California, United States.#shortsfeed #shortsvideo #shortvideo #shorts #short #subscribe #keefhwebdesigns KHWD the 80s revved up a bit as a reelRepresented in the periodic table as Zn, zinc is a transition metal, grouped with cadmium and mercury. With the middling atomic number 30, it has five stable isotopes of atomic weight from the dominant zinc 64 to zinc 70, plus an extra 25 radioisotopes.(a) Schematic chemistry of the ZIB. Zn 2+ ions migrate between tunnels of an α-MnO 2 cathode and a Zn anode. The inset in the upper left corner depicts the basic structural unit of the MnO 6 octahedra of MnO 2. (b) Cyclic voltammogram of the zinc anode (red line) and the α-MnO 2 cathode (blue line). (c) Discharge curves of the ZIB …KeefH Web Designs took some ideas and learning from this set of You Tube Videos, you may also find them useful when thinking about what you want before buyin...'Ohad Naharin's Virus' is an adaptation of 'Offending the Audience', a play by Austrian playwright, author and poet Peter Handke. Considered one of the most imp

La punetona marlene

3 day Weather History for Hayward, Hayward Air Terminal - KHWD. Max. Max. Current Weather Condition at Hayward, Hayward Air Terminal - KHWD, including a history of temperature, precipitation, and a 24 hour summary for Hayward, Hayward Air Terminal .

Learn the five-step process that one of the best copywriters in the content marketing industry leverages to craft sales pages that generate revenue. Trusted by business builders wo...Member rate $610/hr. Block rate $600/hr. Requirements. See Aircraft requirements page for details. Read More →. SR22T G6. KHWD Aircraft. The largest and newest rental fleet of Cirrus Aircraft including the SR22T G6 and the SR20 G6. We are the San Francisco Bay Area's Cirrus Aircraft Platinum Training Partner.Hayward Executive Airport (HWD) Open until 12:00 AM. 7 reviews. (510) 293-8678. Website. More. Directions. Advertisement. 20301 Skywest Dr.METAR Buchanan Field - KCCR/CCR. Buchanan Field is a midsized airport in California, United States. The airport is located at latitude 37.98966 and longitude -122.05690. The airport has 4 runways: 1L/19R, 1R/19L, 14L/32R and 14R/32L. The ICAO airport code of this field is KCCR.Compared with other Zn-based electrochemical devices, this new electrolytic Zn-MnO 2 battery has a record-high output voltage of 1.95 V and an imposing gravimetric capacity of about 570 mAh g −1, together with a record energy density of approximately 409 Wh kg −1 when both anode and cathode active materials are taken into consideration ...KHWD 151754Z 27005KT 10SM FEW015 18/11 A2992 RMK AO2 SLP141 T01780111 10178 20139 50002 Maximum and Minimum Temperatures: Maximum Temperature F (C) Minimum Temperature F (C) 64.0 (17.8) 57.0 (13.9) In the 6 hours preceding May 15, 2024 - 01:54 PM EDT / 2024.05.15 1754 UTC : 73.0 (22.8)Introduction. Aqueous Zn-metal batteries have been re-emerging as a hot topic in academic fields and have been intensively explored after Kang and co-workers proposed a rechargeable zinc-ion battery in 2011. 1 The safe/green operation environment, high ionic conductivities of electrolytes, and high theoretical capacities (820 mAh/g and 5,855 mAh/cm 3) of the Zn-metal anode (ZMA), as well as ...Marda Shie Ardhayy is on Facebook. Join Facebook to connect with Marda Shie Ardhayy and others you may know. Facebook gives people the power to share and makes the world more open and connected.METAR KHWD 160054Z 28011KT 10SM CLR 17/10 A3014 RMK AO2 SLP217 T01720100. The wind is from direction 280° with a speed of 11 kt. Visibility is 10 mi. No ceiling has been observed. The temperature and wind chill are 17 °C. Hayward Executive Airport KHWD · California, United States.More than 100 years after the world's first gender-segregated transit option was introduced, women are still being harassed and groped more than ever. Two high-ranking political ad...KHWD Website 10 is the latest offering from KeefH Web Designs, promising to provide a user-friendly, responsive, and modern website that perfectly represents your brand. Whether you have a small business, a personal blog, or an e-commerce platform, KHWD Website 10 has all the features and tools necessary to satisfy your requirements.METAR KHWD 301954Z VRB06KT 10SM SCT050 18/07 A2962 RMK AO2 SLP041 T01830072. There is little or no wind from a variable direction. Visibility is 10 mi. No ceiling has been observed. The temperature and wind chill are 18 °C. Hayward Executive Airport KHWD · California, United States.

Santana with the song "Evil ways" All copyright to Santana.Tonight. Partly cloudy, with a low around 49. Southwest wind 5 to 13 mph, with gusts as high as 18 mph. Sunday. Mostly cloudy through mid morning, then gradual clearing, with a high near 68. Light southwest wind becoming west 6 to 11 mph in the afternoon. Sunday Night. Increasing clouds, with a low around 51. Southwest wind 5 to 10 mph.Cadmium hydride (systematically named cadmium dihydride) is an inorganic compound with the chemical formula (CdH. 2) n (also written as ( [CdH. 2]) n or CdH. 2 ). It is a solid, …Instagram:https://instagram. alsks almbashr Airport Ownership and Management from official FAA records. Ownership: Publicly-owned. Owner: CITY OF HAYWARD. 777 B ST. HAYWARD, CA 94541. Phone 510-583-4310. CITY MANAGER. sks th FAA aeronautical and local business information for airport Hayward Exec Airport (KHWD), CA, US, covering airport operations, communications, weather, runways, comments and remarks, approach plates and procedures, services, all reporting businesses and FBOs, and kneeboard print outs.Norway's Jakob Ingebrigtsen ran the fastest two mile in history at the Paris Diamond League meet, breaking the previous record set in 1997 by over four secon... sks krtrn 0 likes, 0 comments - rutraebidkhwd on May 10, 2024FM100100 29012KT P6SM SKC. FM100500 33004KT P6SM SKC. Hayward Exec, Hayward, CA (HWD/KHWD) flight tracking (arrivals, departures, en route, and scheduled flights) and airport status. estey munroe and fahey funeral obituaries Tin. 33,700.00. 1.81. USD per Ton. 5/24/24 09:38 AM. Zinc Price: Get all information on the Price of Zinc including News, Charts and Realtime Quotes. syksy gy What Can We Help You Find? Search what are td bank Federal Aviation Administration phone number of mcdonald METAR KHWD 230854Z AUTO 23005KT 10SM OVC028 14/08 A2989 RMK AO2 SLP129 T01440083 51004. The wind is from direction 230° with a speed of 5 kt. Visibility is 10 mi. The ceiling, broken or more, is 2,800 ft. The temperature and wind chill are 14 °C. Hayward Executive Airport山东科宏电子科技有限公司被评为诚信红榜A级 03-26. 关于科宏. 联系我们. 主要从事干式变压器智能温控,干式变压器冷却风机,干式变压器外壳的研发生产,已有近16年的历史。. 智能温控器产品系列,共40多个品种。. 干式冷却风机产品共70多个品种。. 929 988 0059 khwd_so สตรีมถ่ายทอดสดบน Twitch! ดูวิดีโอของพวกเขา ลงทะเบียนเพื่อแชท และเข้าร่วมชุมชนของพวกเขาKHWD is the airport code for Hayward Executive Airport. Click here to find more. sks.pakystany METAR KHWD 131954Z 15009KT 10SM SCT040 BKN110 12/05 A2991 RMK AO2 SLP138 T01170050. The wind is from direction 150° with a speed of 9 kt. Visibility is 10 mi. The ceiling, broken or more, is 11,000 ft. The temperature and wind chill are 12 °C. Hayward Executive Airport KHWD · California, United States. numeros ganadores del mega millions September 12, 2022: California's Meridian attains IS-BAH Stage II: June 24, 2021: Meridian earns GBAC STAR status at two locations: April 4, 2021: Gancarz and Johnson take up the mantle at DuncanWe would like to show you a description here but the site won't allow us. 806 dos sobres paletilla serrana de teruel cortada a maquina Zn(s) + Cu 2 + → Zn 2 + + Cu(s) we write. Zn(s) | Zn 2 + (aq) || Cu 2 + (aq) | Cu(s) in which the single vertical bars represent phase boundaries. The double bar denotes a liquid-liquid boundary which in laboratory cells consists of a salt bridge or in ion-permeable barrier. If the net cell reaction were written in reverse, the cell notation ...Flight Information. This page shows live information about flights from and to San Francisco Bay Oakland International Airport. You can also show yesterday's or tomorrow's flights, filter the list by airline, airport and/or terminal and search a particular flight. Flights from Oakland International Airport Flights to Oakland International Airport.20305 Skywest Dr. Hayward, California 94541 Phone: 510-785-5248 Fax: 510-784-0346 Facility Level: 6 Locality Percentage: 35.15%